ASN logo
ASN Wikibase Occurrence # 190950
Last updated: 17 November 2020
This information is added by users of ASN. Neither ASN nor the Flight Safety Foundation are responsible for the completeness or correctness of this information. If you feel this information is incomplete or incorrect, you can submit corrected information.

Date:27-OCT-2016
Time:11:50
Type:Silhouette image of generic M20T model; specific model in this crash may look slightly different
Mooney M20K
Owner/operator:Private
Registration: N400MW
C/n / msn: 25-0669
Fatalities:Fatalities: 1 / Occupants: 1
Other fatalities:0
Aircraft damage: Written off (damaged beyond repair)
Location:Saarbrucken-Ensheim Airport (EDDR) -   Germany
Phase: Approach
Nature:Private
Departure airport:
Destination airport:aarbrucken-Ensheim Airport (EDDR)
Narrative:
A Mooney M20 crashed on approach in low visibility. The pilot from Stuttgart (57) died.

" The pilot asked to land at 11:46 am ", confirmed Ludwig Vogel, the spokesman of the airport. A landing missed in 300 meters of the runway. If far that the control tower did not see him. " The landing was authorized then the tower lost contact ". The Fire Department sets on fire was then sent on the spot but it was already too late for the pilot.

The registration has not been confirmed. N400MW circled the area east of Saarbrücken shortly before the accident, according to Flightradar24.com records.


Weather about the time of the accident (11:50 LT / 09:50 Z)
EDDR 271020Z 25002KT 0150 R27/0225N FG VV/// 05/05 Q1035 BECMG 0600
EDDR 270950Z 28003KT 240V330 0150 R27/0225N FG VV/// 05/05 Q1035 NOSIG
EDDR 270920Z VRB02KT 0150 R27/0225N FG VV/// 05/05 Q1035 NOSIG


Sources:

http://blaulichtreport-saarland.de/2016/10/1-toter-bei-flugzeugabsturz-in-saarbruecken/
https://www.saarbruecker-zeitung.de/saarland/saarbruecken/saarbruecken/ensheim/#redirect;art446405,6287501
http://www.lessentiel.lu/fr/news/grande_region/story/21218252

https://www.flightradar24.com/2016-10-27/09:36/12x/N400MW/b6f48fe
https://m.planespotters.net/photo/693723/n400mw-aircraft-guaranty-title-llc-tr-mooney-m20k
https://www.flightradar24.com/data/aircraft/n400mw#b6f48fe


Images:


Revision history:

Date/timeContributorUpdates
27-Oct-2016 15:41 luxskater Added
27-Oct-2016 15:45 harro Updated [Aircraft type, Location, Source, Narrative]
27-Oct-2016 15:48 harro Updated [Aircraft type, Registration, Cn, Operator, Other fatalities, Source, Narrative]
27-Oct-2016 18:58 Geno Updated [Source]
28-Oct-2016 17:40 Anon. Updated [Departure airport]
28-Oct-2016 18:50 Iceman 29 Updated [Destination airport, Source, Narrative, Photo, ]

Corrections or additions? ... Edit this accident description